sensor_id;sensor_type;location;lat;lon;timestamp;P1;durP1;ratioP1;P2;durP2;ratioP2
53971;SDS011;40530;53.062;6.078;2023-04-07T00:01:46;32.85;;;24.08;;
53971;SDS011;40530;53.062;6.078;2023-04-07T00:04:12;30.58;;;23.63;;
53971;SDS011;40530;53.062;6.078;2023-04-07T00:06:38;32.22;;;24.88;;
53971;SDS011;40530;53.062;6.078;2023-04-07T00:09:04;32.40;;;23.52;;
53971;SDS011;40530;53.062;6.078;2023-04-07T00:11:30;34.72;;;25.17;;
53971;SDS011;40530;53.062;6.078;2023-04-07T00:13:56;33.53;;;25.55;;
53971;SDS011;40530;53.062;6.078;2023-04-07T00:16:22;35.00;;;26.20;;
53971;SDS011;40530;53.062;6.078;2023-04-07T00:18:48;31.20;;;24.60;;
53971;SDS011;40530;53.062;6.078;2023-04-07T00:21:14;34.83;;;25.77;;
53971;SDS011;40530;53.062;6.078;2023-04-07T00:23:41;32.25;;;24.70;;
53971;SDS011;40530;53.062;6.078;2023-04-07T00:26:07;32.92;;;24.40;;
53971;SDS011;40530;53.062;6.078;2023-04-07T00:28:33;31.40;;;23.35;;
53971;SDS011;40530;53.062;6.078;2023-04-07T00:30:59;32.25;;;24.08;;
53971;SDS011;40530;53.062;6.078;2023-04-07T00:33:25;30.80;;;24.27;;
53971;SDS011;40530;53.062;6.078;2023-04-07T00:35:51;34.58;;;24.70;;
53971;SDS011;40530;53.062;6.078;2023-04-07T00:38:18;38.08;;;26.70;;
53971;SDS011;40530;53.062;6.078;2023-04-07T00:40:44;30.55;;;23.15;;
53971;SDS011;40530;53.062;6.078;2023-04-07T00:43:10;34.65;;;26.38;;
53971;SDS011;40530;53.062;6.078;2023-04-07T00:45:36;34.80;;;24.90;;
53971;SDS011;40530;53.062;6.078;2023-04-07T00:48:03;32.10;;;24.90;;
53971;SDS011;40530;53.062;6.078;2023-04-07T00:50:29;32.95;;;25.25;;
53971;SDS011;40530;53.062;6.078;2023-04-07T00:52:55;31.88;;;24.83;;
53971;SDS011;40530;53.062;6.078;2023-04-07T00:55:22;33.28;;;25.08;;
53971;SDS011;40530;53.062;6.078;2023-04-07T00:57:48;36.50;;;26.38;;
53971;SDS011;40530;53.062;6.078;2023-04-07T01:00:14;33.80;;;24.85;;
53971;SDS011;40530;53.062;6.078;2023-04-07T01:02:41;34.97;;;25.20;;
53971;SDS011;40530;53.062;6.078;2023-04-07T01:07:38;32.05;;;25.33;;
53971;SDS011;40530;53.062;6.078;2023-04-07T01:10:07;35.40;;;25.50;;
53971;SDS011;40530;53.062;6.078;2023-04-07T01:15:03;35.47;;;24.77;;
53971;SDS011;40530;53.062;6.078;2023-04-07T01:17:30;36.60;;;25.95;;
53971;SDS011;40530;53.062;6.078;2023-04-07T01:20:01;38.47;;;28.13;;
53971;SDS011;40530;53.062;6.078;2023-04-07T01:27:48;36.33;;;26.77;;
53971;SDS011;40530;53.062;6.078;2023-04-07T01:30:19;38.28;;;28.10;;
53971;SDS011;40530;53.062;6.078;2023-04-07T01:32:46;38.00;;;27.15;;
53971;SDS011;40530;53.062;6.078;2023-04-07T01:35:15;33.90;;;25.35;;
53971;SDS011;40530;53.062;6.078;2023-04-07T01:37:42;37.95;;;26.65;;
53971;SDS011;40530;53.062;6.078;2023-04-07T01:40:12;35.85;;;26.08;;
53971;SDS011;40530;53.062;6.078;2023-04-07T01:42:38;37.42;;;26.05;;
53971;SDS011;40530;53.062;6.078;2023-04-07T01:45:05;44.05;;;28.73;;
53971;SDS011;40530;53.062;6.078;2023-04-07T01:47:33;40.70;;;26.35;;
53971;SDS011;40530;53.062;6.078;2023-04-07T01:50:01;34.95;;;25.33;;
53971;SDS011;40530;53.062;6.078;2023-04-07T01:52:34;34.63;;;26.02;;
53971;SDS011;40530;53.062;6.078;2023-04-07T01:55:01;34.97;;;25.70;;
53971;SDS011;40530;53.062;6.078;2023-04-07T01:57:27;35.25;;;24.90;;
53971;SDS011;40530;53.062;6.078;2023-04-07T01:59:53;34.75;;;26.55;;
53971;SDS011;40530;53.062;6.078;2023-04-07T02:02:19;39.85;;;25.70;;
53971;SDS011;40530;53.062;6.078;2023-04-07T02:04:55;35.42;;;26.30;;
53971;SDS011;40530;53.062;6.078;2023-04-07T02:07:34;34.92;;;26.60;;
53971;SDS011;40530;53.062;6.078;2023-04-07T02:10:02;36.47;;;27.30;;
53971;SDS011;40530;53.062;6.078;2023-04-07T02:12:31;36.13;;;25.52;;
53971;SDS011;40530;53.062;6.078;2023-04-07T02:14:58;32.08;;;24.38;;
53971;SDS011;40530;53.062;6.078;2023-04-07T02:17:26;33.30;;;25.02;;
53971;SDS011;40530;53.062;6.078;2023-04-07T02:19:53;35.88;;;26.63;;
53971;SDS011;40530;53.062;6.078;2023-04-07T02:22:23;36.22;;;25.83;;
53971;SDS011;40530;53.062;6.078;2023-04-07T02:24:49;35.45;;;27.23;;
53971;SDS011;40530;53.062;6.078;2023-04-07T02:27:18;39.10;;;27.88;;
53971;SDS011;40530;53.062;6.078;2023-04-07T02:29:44;40.05;;;27.02;;
53971;SDS011;40530;53.062;6.078;2023-04-07T02:32:11;37.42;;;27.13;;
53971;SDS011;40530;53.062;6.078;2023-04-07T02:34:37;34.53;;;26.27;;
53971;SDS011;40530;53.062;6.078;2023-04-07T02:37:03;37.55;;;27.02;;
53971;SDS011;40530;53.062;6.078;2023-04-07T02:39:29;37.83;;;27.20;;
53971;SDS011;40530;53.062;6.078;2023-04-07T02:41:55;36.80;;;26.52;;
53971;SDS011;40530;53.062;6.078;2023-04-07T02:44:21;36.80;;;26.08;;
53971;SDS011;40530;53.062;6.078;2023-04-07T02:46:47;37.97;;;26.23;;
53971;SDS011;40530;53.062;6.078;2023-04-07T02:49:13;44.10;;;29.73;;
53971;SDS011;40530;53.062;6.078;2023-04-07T02:51:39;44.00;;;31.42;;
53971;SDS011;40530;53.062;6.078;2023-04-07T02:54:05;50.40;;;31.98;;
53971;SDS011;40530;53.062;6.078;2023-04-07T02:56:31;39.20;;;27.02;;
53971;SDS011;40530;53.062;6.078;2023-04-07T02:58:57;37.95;;;27.40;;
53971;SDS011;40530;53.062;6.078;2023-04-07T03:01:23;38.38;;;27.35;;
53971;SDS011;40530;53.062;6.078;2023-04-07T03:03:50;38.28;;;27.52;;
53971;SDS011;40530;53.062;6.078;2023-04-07T03:06:16;40.00;;;27.25;;
53971;SDS011;40530;53.062;6.078;2023-04-07T03:08:42;39.15;;;28.55;;
53971;SDS011;40530;53.062;6.078;2023-04-07T03:11:08;34.95;;;27.05;;
53971;SDS011;40530;53.062;6.078;2023-04-07T03:13:34;34.53;;;26.27;;
53971;SDS011;40530;53.062;6.078;2023-04-07T03:16:00;40.25;;;27.73;;
53971;SDS011;40530;53.062;6.078;2023-04-07T03:18:26;37.83;;;27.02;;
53971;SDS011;40530;53.062;6.078;2023-04-07T03:20:52;40.35;;;29.10;;
53971;SDS011;40530;53.062;6.078;2023-04-07T03:23:21;36.17;;;26.08;;
53971;SDS011;40530;53.062;6.078;2023-04-07T03:25:48;35.17;;;26.73;;
53971;SDS011;40530;53.062;6.078;2023-04-07T03:28:14;37.33;;;27.13;;
53971;SDS011;40530;53.062;6.078;2023-04-07T03:30:40;40.33;;;27.38;;
53971;SDS011;40530;53.062;6.078;2023-04-07T03:33:06;37.67;;;26.50;;
53971;SDS011;40530;53.062;6.078;2023-04-07T03:35:33;37.50;;;26.00;;
53971;SDS011;40530;53.062;6.078;2023-04-07T03:37:59;34.35;;;26.15;;
53971;SDS011;40530;53.062;6.078;2023-04-07T03:40:25;36.10;;;26.10;;
53971;SDS011;40530;53.062;6.078;2023-04-07T03:42:51;31.30;;;25.27;;
53971;SDS011;40530;53.062;6.078;2023-04-07T03:45:17;32.15;;;25.25;;
53971;SDS011;40530;53.062;6.078;2023-04-07T03:47:43;34.58;;;27.58;;
53971;SDS011;40530;53.062;6.078;2023-04-07T03:50:09;37.53;;;27.63;;
53971;SDS011;40530;53.062;6.078;2023-04-07T03:52:35;38.17;;;27.65;;
53971;SDS011;40530;53.062;6.078;2023-04-07T03:55:01;39.53;;;27.80;;
53971;SDS011;40530;53.062;6.078;2023-04-07T03:57:27;36.95;;;27.80;;
53971;SDS011;40530;53.062;6.078;2023-04-07T03:59:53;39.70;;;27.98;;
53971;SDS011;40530;53.062;6.078;2023-04-07T04:02:20;39.50;;;28.38;;
53971;SDS011;40530;53.062;6.078;2023-04-07T04:04:46;39.33;;;28.48;;
53971;SDS011;40530;53.062;6.078;2023-04-07T04:07:12;38.95;;;27.98;;
53971;SDS011;40530;53.062;6.078;2023-04-07T04:09:38;42.33;;;29.23;;
53971;SDS011;40530;53.062;6.078;2023-04-07T04:12:04;40.08;;;28.50;;
53971;SDS011;40530;53.062;6.078;2023-04-07T04:14:30;43.38;;;29.77;;
53971;SDS011;40530;53.062;6.078;2023-04-07T04:16:56;38.97;;;28.60;;
53971;SDS011;40530;53.062;6.078;2023-04-07T04:19:22;43.42;;;28.05;;
53971;SDS011;40530;53.062;6.078;2023-04-07T04:21:48;37.45;;;28.08;;
53971;SDS011;40530;53.062;6.078;2023-04-07T04:24:15;41.22;;;28.83;;
53971;SDS011;40530;53.062;6.078;2023-04-07T04:26:41;39.97;;;28.35;;
53971;SDS011;40530;53.062;6.078;2023-04-07T04:29:07;36.92;;;27.20;;
53971;SDS011;40530;53.062;6.078;2023-04-07T04:31:33;36.03;;;27.83;;
53971;SDS011;40530;53.062;6.078;2023-04-07T04:33:59;41.60;;;29.00;;
53971;SDS011;40530;53.062;6.078;2023-04-07T04:36:25;38.97;;;29.35;;
53971;SDS011;40530;53.062;6.078;2023-04-07T04:38:51;35.55;;;26.33;;
53971;SDS011;40530;53.062;6.078;2023-04-07T04:41:17;39.75;;;26.88;;
53971;SDS011;40530;53.062;6.078;2023-04-07T04:43:43;44.30;;;28.80;;
53971;SDS011;40530;53.062;6.078;2023-04-07T04:46:10;37.33;;;27.83;;
53971;SDS011;40530;53.062;6.078;2023-04-07T04:48:36;36.30;;;27.23;;
53971;SDS011;40530;53.062;6.078;2023-04-07T04:51:02;37.35;;;28.85;;
53971;SDS011;40530;53.062;6.078;2023-04-07T04:53:28;43.35;;;29.38;;
53971;SDS011;40530;53.062;6.078;2023-04-07T04:55:54;42.15;;;28.65;;
53971;SDS011;40530;53.062;6.078;2023-04-07T04:58:20;40.17;;;27.27;;
53971;SDS011;40530;53.062;6.078;2023-04-07T05:00:47;37.53;;;27.17;;
53971;SDS011;40530;53.062;6.078;2023-04-07T05:03:13;41.00;;;27.88;;
53971;SDS011;40530;53.062;6.078;2023-04-07T05:05:40;36.60;;;27.40;;
53971;SDS011;40530;53.062;6.078;2023-04-07T05:08:07;42.70;;;28.35;;
53971;SDS011;40530;53.062;6.078;2023-04-07T05:10:36;39.47;;;27.70;;
53971;SDS011;40530;53.062;6.078;2023-04-07T05:13:03;38.67;;;26.80;;
53971;SDS011;40530;53.062;6.078;2023-04-07T05:15:29;42.42;;;28.75;;
53971;SDS011;40530;53.062;6.078;2023-04-07T05:17:55;47.05;;;27.67;;
53971;SDS011;40530;53.062;6.078;2023-04-07T05:20:21;37.80;;;26.45;;
53971;SDS011;40530;53.062;6.078;2023-04-07T05:22:47;35.83;;;25.75;;
53971;SDS011;40530;53.062;6.078;2023-04-07T05:25:13;40.45;;;27.50;;
53971;SDS011;40530;53.062;6.078;2023-04-07T05:27:39;37.05;;;25.88;;
53971;SDS011;40530;53.062;6.078;2023-04-07T05:30:06;34.85;;;25.60;;
53971;SDS011;40530;53.062;6.078;2023-04-07T05:32:33;30.67;;;22.40;;
53971;SDS011;40530;53.062;6.078;2023-04-07T05:35:00;28.92;;;22.25;;
53971;SDS011;40530;53.062;6.078;2023-04-07T05:37:26;27.42;;;20.98;;
53971;SDS011;40530;53.062;6.078;2023-04-07T05:39:52;27.92;;;20.20;;
53971;SDS011;40530;53.062;6.078;2023-04-07T05:42:18;27.27;;;21.08;;
53971;SDS011;40530;53.062;6.078;2023-04-07T05:44:44;29.05;;;20.50;;
53971;SDS011;40530;53.062;6.078;2023-04-07T05:47:13;26.80;;;19.83;;
53971;SDS011;40530;53.062;6.078;2023-04-07T05:49:39;26.60;;;20.92;;
53971;SDS011;40530;53.062;6.078;2023-04-07T05:52:10;26.38;;;20.52;;
53971;SDS011;40530;53.062;6.078;2023-04-07T05:54:36;28.98;;;21.25;;
53971;SDS011;40530;53.062;6.078;2023-04-07T05:57:05;26.50;;;20.35;;
53971;SDS011;40530;53.062;6.078;2023-04-07T05:59:31;26.40;;;19.92;;
53971;SDS011;40530;53.062;6.078;2023-04-07T06:01:57;24.65;;;19.55;;
53971;SDS011;40530;53.062;6.078;2023-04-07T06:04:23;25.23;;;19.35;;
53971;SDS011;40530;53.062;6.078;2023-04-07T06:06:49;26.27;;;19.58;;
53971;SDS011;40530;53.062;6.078;2023-04-07T06:09:19;22.33;;;17.77;;
53971;SDS011;40530;53.062;6.078;2023-04-07T06:11:45;21.63;;;18.35;;
53971;SDS011;40530;53.062;6.078;2023-04-07T06:14:12;22.50;;;18.00;;
53971;SDS011;40530;53.062;6.078;2023-04-07T06:16:38;23.58;;;17.85;;
53971;SDS011;40530;53.062;6.078;2023-04-07T06:19:04;22.42;;;17.17;;
53971;SDS011;40530;53.062;6.078;2023-04-07T06:21:31;20.15;;;15.65;;
53971;SDS011;40530;53.062;6.078;2023-04-07T06:23:57;19.95;;;16.17;;
53971;SDS011;40530;53.062;6.078;2023-04-07T06:26:26;19.60;;;15.85;;
53971;SDS011;40530;53.062;6.078;2023-04-07T06:28:53;19.48;;;15.95;;
53971;SDS011;40530;53.062;6.078;2023-04-07T06:31:19;21.60;;;17.30;;
53971;SDS011;40530;53.062;6.078;2023-04-07T06:33:45;22.95;;;17.38;;
53971;SDS011;40530;53.062;6.078;2023-04-07T06:36:11;21.00;;;16.60;;
53971;SDS011;40530;53.062;6.078;2023-04-07T06:38:37;21.02;;;16.20;;
53971;SDS011;40530;53.062;6.078;2023-04-07T06:41:03;20.58;;;15.85;;
53971;SDS011;40530;53.062;6.078;2023-04-07T06:43:30;26.73;;;18.95;;
53971;SDS011;40530;53.062;6.078;2023-04-07T06:45:56;21.42;;;16.42;;
53971;SDS011;40530;53.062;6.078;2023-04-07T06:48:22;20.42;;;16.30;;
53971;SDS011;40530;53.062;6.078;2023-04-07T06:50:48;22.48;;;16.00;;
53971;SDS011;40530;53.062;6.078;2023-04-07T06:53:14;16.70;;;14.32;;
53971;SDS011;40530;53.062;6.078;2023-04-07T06:55:40;19.83;;;15.57;;
53971;SDS011;40530;53.062;6.078;2023-04-07T06:58:07;23.05;;;16.50;;
53971;SDS011;40530;53.062;6.078;2023-04-07T07:00:33;18.73;;;14.50;;
53971;SDS011;40530;53.062;6.078;2023-04-07T07:03:00;19.45;;;15.43;;
53971;SDS011;40530;53.062;6.078;2023-04-07T07:05:26;18.98;;;14.93;;
53971;SDS011;40530;53.062;6.078;2023-04-07T07:07:52;21.17;;;15.68;;
53971;SDS011;40530;53.062;6.078;2023-04-07T07:10:18;19.95;;;15.13;;
53971;SDS011;40530;53.062;6.078;2023-04-07T07:12:46;19.35;;;15.80;;
53971;SDS011;40530;53.062;6.078;2023-04-07T07:15:12;16.77;;;14.27;;
53971;SDS011;40530;53.062;6.078;2023-04-07T07:17:38;17.80;;;15.05;;
53971;SDS011;40530;53.062;6.078;2023-04-07T07:20:04;18.85;;;14.45;;
53971;SDS011;40530;53.062;6.078;2023-04-07T07:22:31;17.85;;;14.32;;
53971;SDS011;40530;53.062;6.078;2023-04-07T07:24:57;19.27;;;15.27;;
53971;SDS011;40530;53.062;6.078;2023-04-07T07:27:23;18.05;;;14.57;;
53971;SDS011;40530;53.062;6.078;2023-04-07T07:29:49;19.25;;;14.18;;
53971;SDS011;40530;53.062;6.078;2023-04-07T07:32:15;16.52;;;14.02;;
53971;SDS011;40530;53.062;6.078;2023-04-07T07:34:41;17.52;;;13.77;;
53971;SDS011;40530;53.062;6.078;2023-04-07T07:37:29;16.92;;;13.57;;
53971;SDS011;40530;53.062;6.078;2023-04-07T07:40:27;16.80;;;13.35;;
53971;SDS011;40530;53.062;6.078;2023-04-07T07:45:50;14.60;;;12.57;;
53971;SDS011;40530;53.062;6.078;2023-04-07T07:51:29;19.98;;;13.48;;
53971;SDS011;40530;53.062;6.078;2023-04-07T07:56:51;16.45;;;14.10;;
53971;SDS011;40530;53.062;6.078;2023-04-07T07:59:17;19.00;;;14.85;;
53971;SDS011;40530;53.062;6.078;2023-04-07T08:01:44;19.92;;;15.55;;
53971;SDS011;40530;53.062;6.078;2023-04-07T08:04:10;21.83;;;16.50;;
53971;SDS011;40530;53.062;6.078;2023-04-07T08:06:36;21.92;;;17.73;;
53971;SDS011;40530;53.062;6.078;2023-04-07T08:09:02;22.05;;;16.95;;
53971;SDS011;40530;53.062;6.078;2023-04-07T08:11:30;21.63;;;17.27;;
53971;SDS011;40530;53.062;6.078;2023-04-07T08:13:56;18.42;;;16.23;;
53971;SDS011;40530;53.062;6.078;2023-04-07T08:16:22;22.52;;;17.80;;
53971;SDS011;40530;53.062;6.078;2023-04-07T08:18:50;20.77;;;16.77;;
53971;SDS011;40530;53.062;6.078;2023-04-07T08:21:16;23.17;;;17.73;;
53971;SDS011;40530;53.062;6.078;2023-04-07T08:23:43;20.50;;;17.48;;
53971;SDS011;40530;53.062;6.078;2023-04-07T08:26:10;22.83;;;17.95;;
53971;SDS011;40530;53.062;6.078;2023-04-07T08:28:36;21.58;;;18.40;;
53971;SDS011;40530;53.062;6.078;2023-04-07T08:31:03;21.05;;;17.67;;
53971;SDS011;40530;53.062;6.078;2023-04-07T08:33:29;20.67;;;17.92;;
53971;SDS011;40530;53.062;6.078;2023-04-07T08:35:55;24.05;;;18.02;;
53971;SDS011;40530;53.062;6.078;2023-04-07T08:38:21;24.05;;;18.40;;
53971;SDS011;40530;53.062;6.078;2023-04-07T08:40:48;22.73;;;18.67;;
53971;SDS011;40530;53.062;6.078;2023-04-07T08:43:18;23.45;;;18.27;;
53971;SDS011;40530;53.062;6.078;2023-04-07T08:45:44;22.23;;;17.17;;
53971;SDS011;40530;53.062;6.078;2023-04-07T08:48:17;20.42;;;17.63;;
53971;SDS011;40530;53.062;6.078;2023-04-07T08:50:48;24.60;;;19.77;;
53971;SDS011;40530;53.062;6.078;2023-04-07T08:53:17;21.10;;;18.15;;
53971;SDS011;40530;53.062;6.078;2023-04-07T08:55:43;20.13;;;17.35;;
53971;SDS011;40530;53.062;6.078;2023-04-07T08:58:09;23.02;;;17.77;;
53971;SDS011;40530;53.062;6.078;2023-04-07T09:00:37;21.60;;;18.20;;
53971;SDS011;40530;53.062;6.078;2023-04-07T09:03:05;22.73;;;17.42;;
53971;SDS011;40530;53.062;6.078;2023-04-07T09:05:33;20.67;;;16.67;;
53971;SDS011;40530;53.062;6.078;2023-04-07T09:07:59;19.10;;;16.15;;
53971;SDS011;40530;53.062;6.078;2023-04-07T09:10:26;24.25;;;17.52;;
53971;SDS011;40530;53.062;6.078;2023-04-07T09:12:52;18.38;;;14.77;;
53971;SDS011;40530;53.062;6.078;2023-04-07T09:15:18;18.70;;;15.73;;
53971;SDS011;40530;53.062;6.078;2023-04-07T09:17:46;19.90;;;15.73;;
53971;SDS011;40530;53.062;6.078;2023-04-07T09:20:12;17.85;;;14.18;;
53971;SDS011;40530;53.062;6.078;2023-04-07T09:22:39;17.25;;;14.02;;
53971;SDS011;40530;53.062;6.078;2023-04-07T09:25:15;17.60;;;15.10;;
53971;SDS011;40530;53.062;6.078;2023-04-07T09:28:00;16.58;;;14.10;;
53971;SDS011;40530;53.062;6.078;2023-04-07T09:30:27;16.60;;;13.27;;
53971;SDS011;40530;53.062;6.078;2023-04-07T09:32:53;15.20;;;13.60;;
53971;SDS011;40530;53.062;6.078;2023-04-07T09:35:20;14.10;;;12.13;;
53971;SDS011;40530;53.062;6.078;2023-04-07T09:38:21;14.70;;;13.15;;
53971;SDS011;40530;53.062;6.078;2023-04-07T09:40:43;13.50;;;11.30;;
53971;SDS011;40530;53.062;6.078;2023-04-07T09:43:13;14.07;;;11.05;;
53971;SDS011;40530;53.062;6.078;2023-04-07T09:45:40;12.65;;;10.55;;
53971;SDS011;40530;53.062;6.078;2023-04-07T09:48:25;11.80;;;10.38;;
53971;SDS011;40530;53.062;6.078;2023-04-07T09:50:52;11.10;;;9.35;;
53971;SDS011;40530;53.062;6.078;2023-04-07T09:53:48;12.10;;;8.90;;
53971;SDS011;40530;53.062;6.078;2023-04-07T09:56:16;10.88;;;9.38;;
53971;SDS011;40530;53.062;6.078;2023-04-07T09:58:43;14.65;;;8.82;;
53971;SDS011;40530;53.062;6.078;2023-04-07T10:01:12;9.30;;;8.27;;
53971;SDS011;40530;53.062;6.078;2023-04-07T10:03:52;9.07;;;7.82;;
53971;SDS011;40530;53.062;6.078;2023-04-07T10:06:26;11.68;;;8.75;;
53971;SDS011;40530;53.062;6.078;2023-04-07T10:09:00;12.15;;;9.63;;
53971;SDS011;40530;53.062;6.078;2023-04-07T10:12:20;11.68;;;9.38;;
53971;SDS011;40530;53.062;6.078;2023-04-07T10:14:49;9.18;;;8.20;;
53971;SDS011;40530;53.062;6.078;2023-04-07T10:17:16;10.60;;;8.13;;
53971;SDS011;40530;53.062;6.078;2023-04-07T10:19:44;29.23;;;17.17;;
53971;SDS011;40530;53.062;6.078;2023-04-07T10:22:11;10.35;;;8.88;;
53971;SDS011;40530;53.062;6.078;2023-04-07T10:28:13;12.40;;;8.57;;
53971;SDS011;40530;53.062;6.078;2023-04-07T10:30:41;13.35;;;8.27;;
53971;SDS011;40530;53.062;6.078;2023-04-07T10:33:09;9.40;;;8.40;;
53971;SDS011;40530;53.062;6.078;2023-04-07T10:39:18;9.60;;;8.57;;
53971;SDS011;40530;53.062;6.078;2023-04-07T10:42:02;10.00;;;8.40;;
53971;SDS011;40530;53.062;6.078;2023-04-07T10:47:24;10.00;;;8.38;;
53971;SDS011;40530;53.062;6.078;2023-04-07T10:59:38;9.20;;;8.30;;
53971;SDS011;40530;53.062;6.078;2023-04-07T11:04:42;8.20;;;7.32;;
53971;SDS011;40530;53.062;6.078;2023-04-07T11:07:08;8.23;;;7.32;;
53971;SDS011;40530;53.062;6.078;2023-04-07T11:09:35;9.32;;;7.53;;
53971;SDS011;40530;53.062;6.078;2023-04-07T11:12:04;9.27;;;7.65;;
53971;SDS011;40530;53.062;6.078;2023-04-07T11:14:31;9.20;;;8.05;;
53971;SDS011;40530;53.062;6.078;2023-04-07T11:16:57;7.90;;;7.10;;
53971;SDS011;40530;53.062;6.078;2023-04-07T11:19:25;8.48;;;7.22;;
53971;SDS011;40530;53.062;6.078;2023-04-07T11:22:14;8.50;;;7.07;;
53971;SDS011;40530;53.062;6.078;2023-04-07T11:24:40;7.70;;;6.70;;
53971;SDS011;40530;53.062;6.078;2023-04-07T11:30:36;6.47;;;5.82;;
53971;SDS011;40530;53.062;6.078;2023-04-07T11:49:30;5.50;;;4.90;;
53971;SDS011;40530;53.062;6.078;2023-04-07T11:55:15;5.72;;;5.13;;
53971;SDS011;40530;53.062;6.078;2023-04-07T11:57:41;5.88;;;5.28;;
53971;SDS011;40530;53.062;6.078;2023-04-07T12:00:11;4.53;;;4.13;;
53971;SDS011;40530;53.062;6.078;2023-04-07T12:05:11;5.70;;;5.10;;
53971;SDS011;40530;53.062;6.078;2023-04-07T12:07:51;4.88;;;4.38;;
53971;SDS011;40530;53.062;6.078;2023-04-07T12:10:20;5.32;;;4.50;;
53971;SDS011;40530;53.062;6.078;2023-04-07T12:12:50;5.55;;;4.43;;
53971;SDS011;40530;53.062;6.078;2023-04-07T12:15:16;5.78;;;5.10;;
53971;SDS011;40530;53.062;6.078;2023-04-07T12:17:46;8.88;;;5.22;;
53971;SDS011;40530;53.062;6.078;2023-04-07T12:20:12;5.93;;;4.88;;
53971;SDS011;40530;53.062;6.078;2023-04-07T12:22:39;5.35;;;4.85;;
53971;SDS011;40530;53.062;6.078;2023-04-07T12:25:05;6.45;;;4.78;;
53971;SDS011;40530;53.062;6.078;2023-04-07T12:27:31;6.05;;;5.38;;
53971;SDS011;40530;53.062;6.078;2023-04-07T12:29:58;5.90;;;5.10;;
53971;SDS011;40530;53.062;6.078;2023-04-07T12:32:24;6.18;;;5.00;;
53971;SDS011;40530;53.062;6.078;2023-04-07T12:34:52;7.32;;;5.45;;
53971;SDS011;40530;53.062;6.078;2023-04-07T12:37:18;5.80;;;5.20;;
53971;SDS011;40530;53.062;6.078;2023-04-07T12:39:44;5.15;;;4.35;;
53971;SDS011;40530;53.062;6.078;2023-04-07T12:42:11;5.80;;;5.05;;
53971;SDS011;40530;53.062;6.078;2023-04-07T12:44:37;7.40;;;5.32;;
53971;SDS011;40530;53.062;6.078;2023-04-07T12:47:03;5.95;;;5.35;;
53971;SDS011;40530;53.062;6.078;2023-04-07T12:49:29;5.95;;;5.28;;
53971;SDS011;40530;53.062;6.078;2023-04-07T12:51:55;5.25;;;4.75;;
53971;SDS011;40530;53.062;6.078;2023-04-07T12:54:22;6.28;;;4.38;;
53971;SDS011;40530;53.062;6.078;2023-04-07T12:56:48;5.78;;;5.10;;
53971;SDS011;40530;53.062;6.078;2023-04-07T12:59:15;5.40;;;4.90;;
53971;SDS011;40530;53.062;6.078;2023-04-07T13:01:41;5.57;;;4.90;;
53971;SDS011;40530;53.062;6.078;2023-04-07T13:04:09;5.97;;;4.40;;
53971;SDS011;40530;53.062;6.078;2023-04-07T13:06:35;5.40;;;4.85;;
53971;SDS011;40530;53.062;6.078;2023-04-07T13:09:02;5.28;;;4.78;;
53971;SDS011;40530;53.062;6.078;2023-04-07T13:11:28;4.65;;;4.22;;
53971;SDS011;40530;53.062;6.078;2023-04-07T13:13:54;5.20;;;4.70;;
53971;SDS011;40530;53.062;6.078;2023-04-07T13:16:20;7.82;;;5.00;;
53971;SDS011;40530;53.062;6.078;2023-04-07T13:18:46;4.93;;;4.32;;
53971;SDS011;40530;53.062;6.078;2023-04-07T13:21:12;6.05;;;5.28;;
53971;SDS011;40530;53.062;6.078;2023-04-07T13:23:41;9.43;;;4.68;;
53971;SDS011;40530;53.062;6.078;2023-04-07T13:26:07;28.95;;;19.40;;
53971;SDS011;40530;53.062;6.078;2023-04-07T13:28:33;110.00;;;70.30;;
53971;SDS011;40530;53.062;6.078;2023-04-07T13:30:59;8.27;;;6.20;;
53971;SDS011;40530;53.062;6.078;2023-04-07T13:33:25;5.90;;;5.30;;
53971;SDS011;40530;53.062;6.078;2023-04-07T13:35:54;6.18;;;5.32;;
53971;SDS011;40530;53.062;6.078;2023-04-07T13:38:32;5.60;;;5.00;;
53971;SDS011;40530;53.062;6.078;2023-04-07T13:40:58;6.78;;;5.60;;
53971;SDS011;40530;53.062;6.078;2023-04-07T13:43:24;10.65;;;7.95;;
53971;SDS011;40530;53.062;6.078;2023-04-07T13:45:50;7.65;;;5.80;;
53971;SDS011;40530;53.062;6.078;2023-04-07T13:48:16;7.03;;;5.03;;
53971;SDS011;40530;53.062;6.078;2023-04-07T13:50:43;6.80;;;5.28;;
53971;SDS011;40530;53.062;6.078;2023-04-07T13:53:11;5.95;;;5.35;;
53971;SDS011;40530;53.062;6.078;2023-04-07T13:55:38;5.50;;;4.95;;
53971;SDS011;40530;53.062;6.078;2023-04-07T13:58:04;5.72;;;5.10;;
53971;SDS011;40530;53.062;6.078;2023-04-07T14:00:30;6.93;;;5.78;;
53971;SDS011;40530;53.062;6.078;2023-04-07T14:02:56;7.05;;;5.53;;
53971;SDS011;40530;53.062;6.078;2023-04-07T14:05:23;5.20;;;4.70;;
53971;SDS011;40530;53.062;6.078;2023-04-07T14:07:50;6.28;;;5.22;;
53971;SDS011;40530;53.062;6.078;2023-04-07T14:10:16;6.93;;;6.20;;
53971;SDS011;40530;53.062;6.078;2023-04-07T14:12:42;6.10;;;5.50;;
53971;SDS011;40530;53.062;6.078;2023-04-07T14:15:12;7.60;;;6.60;;
53971;SDS011;40530;53.062;6.078;2023-04-07T14:17:38;9.13;;;7.20;;
53971;SDS011;40530;53.062;6.078;2023-04-07T14:20:04;9.45;;;6.72;;
53971;SDS011;40530;53.062;6.078;2023-04-07T14:22:30;8.02;;;7.05;;
53971;SDS011;40530;53.062;6.078;2023-04-07T14:24:56;7.22;;;6.40;;
53971;SDS011;40530;53.062;6.078;2023-04-07T14:27:22;13.68;;;10.95;;
53971;SDS011;40530;53.062;6.078;2023-04-07T14:29:54;8.02;;;6.72;;
53971;SDS011;40530;53.062;6.078;2023-04-07T14:32:21;7.72;;;6.32;;
53971;SDS011;40530;53.062;6.078;2023-04-07T14:34:53;8.98;;;5.32;;
53971;SDS011;40530;53.062;6.078;2023-04-07T14:37:23;5.53;;;4.75;;
53971;SDS011;40530;53.062;6.078;2023-04-07T14:39:50;5.32;;;4.70;;
53971;SDS011;40530;53.062;6.078;2023-04-07T14:42:17;5.57;;;4.90;;
53971;SDS011;40530;53.062;6.078;2023-04-07T14:44:43;5.15;;;4.65;;
53971;SDS011;40530;53.062;6.078;2023-04-07T14:47:09;6.45;;;5.20;;
53971;SDS011;40530;53.062;6.078;2023-04-07T14:49:36;5.68;;;5.07;;
53971;SDS011;40530;53.062;6.078;2023-04-07T14:52:04;5.68;;;5.07;;
53971;SDS011;40530;53.062;6.078;2023-04-07T14:54:30;5.30;;;4.63;;
53971;SDS011;40530;53.062;6.078;2023-04-07T14:56:56;4.95;;;4.45;;
53971;SDS011;40530;53.062;6.078;2023-04-07T14:59:22;5.25;;;4.50;;
53971;SDS011;40530;53.062;6.078;2023-04-07T15:01:48;7.95;;;6.18;;
53971;SDS011;40530;53.062;6.078;2023-04-07T15:04:14;6.25;;;4.68;;
53971;SDS011;40530;53.062;6.078;2023-04-07T15:06:40;5.18;;;4.68;;
53971;SDS011;40530;53.062;6.078;2023-04-07T15:09:06;8.13;;;4.60;;
53971;SDS011;40530;53.062;6.078;2023-04-07T15:11:45;5.68;;;4.65;;
53971;SDS011;40530;53.062;6.078;2023-04-07T15:14:14;4.95;;;4.43;;
53971;SDS011;40530;53.062;6.078;2023-04-07T15:16:46;4.95;;;4.45;;
53971;SDS011;40530;53.062;6.078;2023-04-07T15:19:14;4.45;;;4.03;;
53971;SDS011;40530;53.062;6.078;2023-04-07T15:21:40;4.40;;;4.00;;
53971;SDS011;40530;53.062;6.078;2023-04-07T15:24:09;5.05;;;4.50;;
53971;SDS011;40530;53.062;6.078;2023-04-07T15:26:35;4.57;;;4.10;;
53971;SDS011;40530;53.062;6.078;2023-04-07T15:37:39;5.82;;;4.53;;
53971;SDS011;40530;53.062;6.078;2023-04-07T15:43:31;6.25;;;4.72;;
53971;SDS011;40530;53.062;6.078;2023-04-07T15:46:02;5.28;;;4.45;;
53971;SDS011;40530;53.062;6.078;2023-04-07T15:48:28;5.03;;;4.30;;
53971;SDS011;40530;53.062;6.078;2023-04-07T15:50:54;5.25;;;4.43;;
53971;SDS011;40530;53.062;6.078;2023-04-07T15:53:20;6.50;;;4.05;;